Time;durP1;ratioP1;P1;durP2;ratioP2;P2;SDS_P1;SDS_P2;PMS_P1;PMS_P2;Temp;Humidity;BMP_temperature;BMP_pressure;BME280_temperature;BME280_humidity;BME280_pressure;Samples;Min_cycle;Max_cycle;Signal;HPM_P1;HPM_P2
2022/11/25 00:01:05;;;;;;;13.98;3.50;;;;;;;8.58;95.89;100869.56;5033996;28;20425;-49
2022/11/25 00:03:30;;;;;;;11.50;3.13;;;;;;;8.60;95.80;100866.81;5029482;28;20039;-49
2022/11/25 00:05:55;;;;;;;17.90;4.40;;;;;;;8.62;95.71;100870.22;5030893;28;20120;-49
2022/11/25 00:08:20;;;;;;;19.92;4.47;;;;;;;8.63;95.79;100864.81;5042090;28;20026;-50
2022/11/25 00:10:46;;;;;;;20.90;4.10;;;;;;;8.63;95.75;100869.28;5038589;28;20072;-49
2022/11/25 00:13:11;;;;;;;17.90;3.85;;;;;;;8.64;95.84;100863.88;5033122;28;20378;-49
2022/11/25 00:15:36;;;;;;;18.73;4.03;;;;;;;8.65;95.89;100867.34;5033198;28;20060;-52
2022/11/25 00:18:01;;;;;;;14.02;3.50;;;;;;;8.65;95.86;100862.91;5030005;28;20021;-50
2022/11/25 00:20:27;;;;;;;14.00;3.60;;;;;;;8.65;96.04;100851.47;5033099;28;20091;-49
2022/11/25 00:22:53;;;;;;;19.63;3.53;;;;;;;8.65;95.93;100846.19;5033163;28;20047;-49
2022/11/25 00:25:18;;;;;;;17.30;3.35;;;;;;;8.64;95.98;100853.28;5032603;28;20045;-49
2022/11/25 00:27:43;;;;;;;18.92;3.90;;;;;;;8.64;95.96;100852.41;5033077;28;20710;-49
2022/11/25 00:30:09;;;;;;;16.77;3.80;;;;;;;8.66;96.09;100847.84;5032454;28;20030;-51
2022/11/25 00:32:35;;;;;;;19.42;3.63;;;;;;;8.65;95.97;100849.66;5033341;28;20096;-49
2022/11/25 00:35:00;;;;;;;16.33;4.03;;;;;;;8.65;95.98;100844.38;5034214;28;20453;-48
2022/11/25 00:37:25;;;;;;;19.85;3.78;;;;;;;8.65;96.31;100838.22;5032513;28;20211;-48
2022/11/25 00:39:50;;;;;;;15.18;3.05;;;;;;;8.63;96.21;100840.16;5032945;28;20032;-48
2022/11/25 00:44:59;;;;;;;17.30;3.97;;;;;;;8.62;96.39;100833.16;5032583;28;20880;-51
2022/11/25 00:47:25;;;;;;;14.18;3.45;;;;;;;8.61;96.41;100832.31;5033399;28;20017;-48
2022/11/25 00:49:52;;;;;;;21.85;4.07;;;;;;;8.62;96.55;100831.34;5032923;28;20030;-49
2022/11/25 00:52:21;;;;;;;13.32;3.25;;;;;;;8.61;96.59;100829.66;5032483;28;20021;-49
2022/11/25 00:54:47;;;;;;;17.20;3.03;;;;;;;8.63;96.69;100837.50;5030049;28;20087;-49
2022/11/25 00:57:13;;;;;;;20.67;4.10;;;;;;;8.62;96.71;100841.09;5035032;28;20272;-49
2022/11/25 00:59:39;;;;;;;18.73;3.78;;;;;;;8.63;96.92;100840.16;5031958;28;20030;-50
2022/11/25 01:02:04;;;;;;;17.33;3.63;;;;;;;8.62;96.94;100847.22;5031356;28;20037;-52
2022/11/25 01:04:30;;;;;;;17.35;3.40;;;;;;;8.64;97.09;100842.69;5032276;28;20033;-49
2022/11/25 01:06:57;;;;;;;16.25;3.22;;;;;;;8.65;97.14;100846.19;5032659;28;20512;-49
2022/11/25 01:09:22;;;;;;;16.83;3.90;;;;;;;8.65;97.11;100843.53;5031887;28;20030;-52
2022/11/25 01:11:51;;;;;;;19.60;4.13;;;;;;;8.65;97.20;100841.72;5031471;28;20475;-51
2022/11/25 01:14:18;;;;;;;16.48;3.80;;;;;;;8.65;97.35;100844.38;5032464;28;20032;-49
2022/11/25 01:16:43;;;;;;;15.50;3.33;;;;;;;8.65;97.56;100847.00;5031720;28;20493;-49
2022/11/25 01:19:10;;;;;;;19.60;3.75;;;;;;;8.68;97.55;100851.25;5031836;28;20113;-52
2022/11/25 01:21:35;;;;;;;14.90;3.60;;;;;;;8.69;97.45;100845.00;5031680;28;20475;-49
2022/11/25 01:24:02;;;;;;;16.77;4.15;;;;;;;8.70;97.75;100855.50;5031872;28;20037;-51
2022/11/25 01:26:29;;;;;;;22.77;4.53;;;;;;;8.70;97.69;100847.53;5031477;28;20060;-50
2022/11/25 01:28:58;;;;;;;17.67;3.72;;;;;;;8.70;97.79;100854.66;5031743;28;20030;-50
2022/11/25 01:31:24;;;;;;;;;;;;;;;8.75;97.23;100859.63;5032693;28;20106;-50
2022/11/25 01:33:58;;;;;;;15.20;3.50;;;;;;;8.72;97.74;100863.31;5031604;28;19936;-49
2022/11/25 01:36:24;;;;;;;19.98;3.45;;;;;;;8.74;97.88;100863.22;5031866;28;20025;-50
2022/11/25 01:38:55;;;;;;;19.17;3.92;;;;;;;8.73;97.55;100867.69;5031670;28;20029;-50
2022/11/25 01:41:22;;;;;;;19.02;3.90;;;;;;;8.74;98.05;100864.06;5024344;28;20025;-49
2022/11/25 01:44:21;;;;;;;16.40;3.33;;;;;;;8.77;97.94;100879.75;5031306;28;20036;-49
2022/11/25 01:47:02;;;;;;;16.67;3.72;;;;;;;8.78;97.92;100880.63;5029711;28;20168;-49
2022/11/25 01:49:47;;;;;;;17.92;3.53;;;;;;;8.77;97.83;100885.03;5031969;28;20032;-49
2022/11/25 01:52:36;;;;;;;17.70;3.63;;;;;;;8.79;98.04;100895.53;5025057;28;20025;-50
2022/11/25 01:55:04;;;;;;;15.15;4.28;;;;;;;8.78;98.30;100893.84;5036819;28;20032;-49
2022/11/25 01:57:49;;;;;;;18.90;4.07;;;;;;;8.79;98.45;100893.75;5035812;28;20071;-50
2022/11/25 02:00:15;;;;;;;13.60;3.42;;;;;;;8.81;98.52;100901.56;5029250;28;20426;-50
2022/11/25 02:02:41;;;;;;;14.80;3.53;;;;;;;8.84;98.70;100910.19;5030499;28;20108;-50
2022/11/25 02:05:09;;;;;;;16.92;3.95;;;;;;;8.85;98.71;100913.66;5032290;28;20030;-50
2022/11/25 02:07:37;;;;;;;16.15;3.97;;;;;;;8.85;98.81;100919.81;5032951;28;20025;-49
2022/11/25 02:10:08;;;;;;;16.33;3.80;;;;;;;8.86;98.75;100920.66;5032429;28;20039;-49
2022/11/25 02:12:35;;;;;;;18.48;3.80;;;;;;;8.87;98.74;100914.41;5032280;28;20017;-49
2022/11/25 02:15:02;;;;;;;16.10;4.40;;;;;;;8.88;98.92;100916.94;5032375;28;20041;-51
2022/11/25 02:17:28;;;;;;;18.10;3.83;;;;;;;8.89;98.77;100925.72;5032148;28;20026;-51
2022/11/25 02:20:04;;;;;;;13.40;3.47;;;;;;;8.89;98.84;100931.91;5032283;28;20087;-52
2022/11/25 02:22:43;;;;;;;18.40;3.78;;;;;;;8.90;98.94;100927.44;5031706;28;20505;-51
2022/11/25 02:25:12;;;;;;;13.75;3.53;;;;;;;8.90;99.30;100930.09;5032057;28;20038;-52
2022/11/25 02:27:38;;;;;;;15.82;3.30;;;;;;;8.88;99.76;100934.66;5032056;28;20037;-50
2022/11/25 02:30:04;;;;;;;14.63;3.60;;;;;;;8.88;99.85;100932.00;5031763;28;20100;-52
2022/11/25 02:32:29;;;;;;;16.60;3.80;;;;;;;8.85;100.00;100930.41;5032243;28;20036;-49
2022/11/25 02:34:54;;;;;;;16.40;3.42;;;;;;;8.84;100.00;100938.44;5031571;28;20037;-50
2022/11/25 02:37:22;;;;;;;19.73;3.75;;;;;;;8.79;100.00;100938.78;5031797;28;20029;-49
2022/11/25 02:39:50;;;;;;;15.45;3.30;;;;;;;8.79;100.00;100945.84;5032372;28;20108;-52
2022/11/25 02:42:18;;;;;;;14.70;3.55;;;;;;;8.77;100.00;100951.25;5031759;28;20028;-50
2022/11/25 02:44:43;;;;;;;20.10;3.85;;;;;;;8.75;100.00;100947.03;5029581;28;20034;-49
2022/11/25 02:47:09;;;;;;;14.80;3.50;;;;;;;8.72;100.00;100947.22;5031514;28;20029;-49
2022/11/25 02:49:34;;;;;;;15.15;3.33;;;;;;;8.70;100.00;100942.03;5032042;28;20143;-50
2022/11/25 02:51:59;;;;;;;13.57;3.15;;;;;;;8.67;100.00;100937.78;5031315;28;20061;-49
2022/11/25 02:54:25;;;;;;;16.80;3.10;;;;;;;8.65;100.00;100926.44;5031820;28;20104;-49
2022/11/25 02:56:50;;;;;;;13.18;3.15;;;;;;;8.62;100.00;100913.41;5031246;28;20095;-49
2022/11/25 02:59:15;;;;;;;12.40;3.10;;;;;;;8.59;100.00;100895.09;5031868;28;20473;-50
2022/11/25 03:01:40;;;;;;;14.75;3.08;;;;;;;8.57;100.00;100878.47;5031718;28;20036;-50
2022/11/25 03:04:06;;;;;;;15.02;3.05;;;;;;;8.55;100.00;100867.13;5031607;28;20044;-50
2022/11/25 03:06:31;;;;;;;14.57;2.97;;;;;;;8.52;100.00;100857.59;5031748;28;20025;-49
2022/11/25 03:08:57;;;;;;;18.80;3.60;;;;;;;8.51;100.00;100860.38;5031852;28;20021;-49
2022/11/25 03:12:17;;;;;;;14.43;2.80;;;;;;;8.47;100.00;100872.94;5031198;28;20048;-51
2022/11/25 03:14:08;;;;;;;13.38;3.08;;;;;;;8.46;100.00;100886.28;5031221;28;20041;-50
2022/11/25 03:16:33;;;;;;;11.95;2.85;;;;;;;8.46;100.00;100896.84;5031301;28;20108;-50
2022/11/25 03:18:59;;;;;;;9.27;2.80;;;;;;;8.44;100.00;100907.56;5032033;28;20063;-51
2022/11/25 03:21:24;;;;;;;13.82;2.75;;;;;;;8.42;100.00;100906.78;5031160;28;20041;-50
2022/11/25 03:23:49;;;;;;;12.65;2.70;;;;;;;8.39;100.00;100893.75;5031672;28;20045;-51
2022/11/25 03:26:14;;;;;;;11.52;2.90;;;;;;;8.39;100.00;100892.91;5030951;28;20506;-51
2022/11/25 03:28:40;;;;;;;11.27;2.80;;;;;;;8.36;100.00;100893.97;5029998;28;20032;-49
2022/11/25 03:31:09;;;;;;;6.82;2.40;;;;;;;8.36;100.00;100906.34;5030708;28;20151;-50
2022/11/25 03:33:35;;;;;;;6.30;2.17;;;;;;;8.33;100.00;100918.81;5031935;28;20021;-50
2022/11/25 03:36:00;;;;;;;10.73;2.42;;;;;;;8.32;100.00;100933.00;5034840;28;20510;-52
2022/11/25 03:38:25;;;;;;;7.95;2.40;;;;;;;8.32;100.00;100938.28;5035500;28;20475;-50
2022/11/25 03:40:51;;;;;;;9.18;2.22;;;;;;;8.30;100.00;100937.53;5035079;28;20071;-51
2022/11/25 03:43:16;;;;;;;10.85;2.40;;;;;;;8.31;100.00;100947.19;5034801;28;20383;-50
2022/11/25 03:45:41;;;;;;;10.68;2.50;;;;;;;8.29;100.00;100938.50;5034925;28;20033;-50
2022/11/25 03:48:06;;;;;;;6.47;2.25;;;;;;;8.25;100.00;100942.28;5034950;28;20026;-51
2022/11/25 03:50:32;;;;;;;6.32;1.95;;;;;;;8.24;100.00;100950.31;5034923;28;20040;-50
2022/11/25 03:52:57;;;;;;;7.65;2.28;;;;;;;8.22;100.00;100946.94;5040296;28;20029;-50
2022/11/25 03:55:22;;;;;;;8.40;2.17;;;;;;;8.20;100.00;100957.63;5034839;28;20033;-51
2022/11/25 03:57:48;;;;;;;8.73;2.22;;;;;;;8.18;100.00;100953.38;5024453;28;20064;-50
2022/11/25 04:00:13;;;;;;;7.20;2.20;;;;;;;8.15;100.00;100946.50;5034364;28;20112;-50
2022/11/25 04:02:39;;;;;;;6.55;1.88;;;;;;;8.13;100.00;100954.53;5041830;28;20033;-50
2022/11/25 04:05:04;;;;;;;7.60;2.00;;;;;;;8.09;100.00;100960.97;5034984;28;20072;-50
2022/11/25 04:07:29;;;;;;;7.18;2.25;;;;;;;8.09;100.00;100965.41;5034560;28;20036;-50
2022/11/25 04:09:55;;;;;;;8.15;2.22;;;;;;;8.06;100.00;100965.59;5034406;28;20028;-50
2022/11/25 04:15:05;;;;;;;7.38;1.75;;;;;;;8.00;100.00;100971.28;5034698;28;20122;-50
2022/11/25 04:17:30;;;;;;;8.27;1.70;;;;;;;7.96;100.00;100973.28;5034412;28;20118;-50
2022/11/25 04:19:55;;;;;;;6.35;1.88;;;;;;;7.91;100.00;100973.56;5034026;28;20024;-50
2022/11/25 04:22:21;;;;;;;5.43;1.90;;;;;;;7.87;100.00;100974.69;5034455;28;20026;-51
2022/11/25 04:24:46;;;;;;;5.80;1.65;;;;;;;7.84;100.00;100984.63;5033914;28;20032;-54
2022/11/25 04:27:11;;;;;;;5.78;1.80;;;;;;;7.81;100.00;100992.75;5027764;28;20506;-51
2022/11/25 04:29:36;;;;;;;3.53;1.60;;;;;;;7.78;100.00;100997.28;5034169;28;20037;-50
2022/11/25 04:32:02;;;;;;;5.97;1.48;;;;;;;7.76;100.00;101008.88;5034501;28;20121;-51
2022/11/25 04:34:27;;;;;;;5.13;1.52;;;;;;;7.72;100.00;101002.94;5033992;28;20021;-52
2022/11/25 04:36:52;;;;;;;6.75;1.90;;;;;;;7.70;100.00;101014.59;5034028;28;20116;-52
2022/11/25 04:39:18;;;;;;;6.07;1.70;;;;;;;7.69;100.00;101024.28;5033998;28;20029;-52
2022/11/25 04:41:43;;;;;;;5.97;1.73;;;;;;;7.66;100.00;101021.84;5034351;28;20058;-51
2022/11/25 04:44:09;;;;;;;5.28;1.60;;;;;;;7.65;100.00;101022.78;5039558;28;20026;-50
2022/11/25 04:46:40;;;;;;;6.13;1.85;;;;;;;7.62;100.00;101024.78;5035165;28;20030;-51
2022/11/25 04:49:06;;;;;;;4.75;1.70;;;;;;;7.61;100.00;101029.22;5033474;28;20118;-50
2022/11/25 04:51:31;;;;;;;5.78;1.70;;;;;;;7.57;100.00;101019.75;5034477;28;20502;-50
2022/11/25 04:53:57;;;;;;;6.22;1.65;;;;;;;7.55;100.00;101013.72;5033579;28;20104;-50
2022/11/25 04:56:23;;;;;;;4.43;1.73;;;;;;;7.53;100.00;101019.09;5034269;28;20033;-52
2022/11/25 05:01:32;;;;;;;10.90;1.90;;;;;;;7.48;100.00;101034.41;5034441;28;20052;-49
2022/11/25 05:03:57;;;;;;;7.45;1.90;;;;;;;7.47;100.00;101039.78;5034109;28;20506;-51
2022/11/25 05:06:23;;;;;;;5.55;1.88;;;;;;;7.46;100.00;101040.69;5033051;28;20116;-54
2022/11/25 05:08:49;;;;;;;9.55;2.17;;;;;;;7.45;100.00;101039.88;5037499;28;20034;-53
2022/11/25 05:11:14;;;;;;;5.18;1.85;;;;;;;7.41;100.00;101041.84;5033791;28;20376;-50
2022/11/25 05:13:40;;;;;;;5.72;1.88;;;;;;;7.40;100.00;101053.34;5032606;28;20037;-50
2022/11/25 05:16:06;;;;;;;5.32;1.70;;;;;;;7.37;100.00;101045.59;5027849;28;20396;-51
2022/11/25 05:18:31;;;;;;;8.02;2.40;;;;;;;7.36;100.00;101048.31;5039907;28;20104;-53
2022/11/25 05:21:01;;;;;;;8.48;2.38;;;;;;;7.31;100.00;101053.03;5033494;28;20526;-51
2022/11/25 05:23:26;;;;;;;5.45;2.15;;;;;;;7.27;100.00;101052.38;5033157;28;20041;-53
2022/11/25 05:25:52;;;;;;;7.65;2.28;;;;;;;7.27;100.00;101051.53;5033200;28;20056;-52
2022/11/25 05:28:17;;;;;;;6.20;2.13;;;;;;;7.24;100.00;101044.63;5033363;28;20025;-53
2022/11/25 05:30:44;;;;;;;8.50;2.50;;;;;;;7.21;100.00;101042.16;5032813;28;20406;-54
2022/11/25 05:33:09;;;;;;;7.10;2.40;;;;;;;7.17;100.00;101046.78;5033270;28;20040;-53
2022/11/25 05:35:34;;;;;;;9.45;2.72;;;;;;;7.15;100.00;101051.31;5033358;28;20022;-52
2022/11/25 05:38:02;;;;;;;10.75;2.70;;;;;;;7.13;100.00;101042.63;5033464;28;20026;-52
2022/11/25 05:40:28;;;;;;;9.02;2.70;;;;;;;7.11;100.00;101051.56;5033210;28;20068;-50
2022/11/25 05:42:53;;;;;;;8.90;3.22;;;;;;;7.08;100.00;101051.75;5032980;28;20376;-50
2022/11/25 05:45:18;;;;;;;8.10;3.50;;;;;;;7.06;100.00;101062.44;5033045;28;20112;-50
2022/11/25 05:47:43;;;;;;;9.85;4.15;;;;;;;7.04;100.00;101062.53;5033372;28;20029;-49
2022/11/25 05:50:09;;;;;;;8.40;3.38;;;;;;;7.02;100.00;101076.75;5033055;28;20049;-50
2022/11/25 05:52:34;;;;;;;6.57;3.60;;;;;;;6.98;100.00;101072.59;5026662;28;20112;-51
2022/11/25 05:54:59;;;;;;;10.35;4.47;;;;;;;6.97;100.00;101073.53;5032856;28;20060;-50
2022/11/25 05:57:25;;;;;;;8.88;3.95;;;;;;;6.95;100.00;101078.88;5031381;28;20083;-50
2022/11/25 05:59:50;;;;;;;9.63;4.10;;;;;;;6.92;100.00;101078.22;5032938;28;20064;-51
2022/11/25 06:02:15;;;;;;;11.27;4.18;;;;;;;6.90;100.00;101073.03;5032252;28;20028;-52
2022/11/25 06:04:40;;;;;;;11.85;4.22;;;;;;;6.90;100.00;101085.38;5032385;28;20084;-51
2022/11/25 06:07:06;;;;;;;11.27;4.20;;;;;;;6.90;100.00;101082.75;5031874;28;20033;-50
2022/11/25 06:09:31;;;;;;;10.27;4.60;;;;;;;6.89;100.00;101081.03;5032771;28;20403;-50
2022/11/25 06:11:56;;;;;;;13.55;4.72;;;;;;;6.90;100.00;101085.38;5032886;28;20387;-50
2022/11/25 06:14:22;;;;;;;12.85;4.38;;;;;;;6.89;100.00;101088.94;5032459;28;20029;-54
2022/11/25 06:16:47;;;;;;;10.20;4.00;;;;;;;6.89;100.00;101088.94;5032256;28;20445;-54
2022/11/25 06:19:12;;;;;;;9.05;4.32;;;;;;;6.86;100.00;101097.88;5032978;28;20360;-51
2022/11/25 06:21:38;;;;;;;9.82;3.88;;;;;;;6.85;100.00;101104.13;5032227;28;20144;-54
2022/11/25 06:24:03;;;;;;;11.20;4.25;;;;;;;6.85;100.00;101097.03;5032636;28;20033;-53
2022/11/25 06:26:29;;;;;;;10.60;4.03;;;;;;;6.83;100.00;101101.56;5032237;28;20387;-51
2022/11/25 06:28:55;;;;;;;13.65;3.80;;;;;;;6.83;100.00;101104.22;5024996;28;20062;-52
2022/11/25 06:31:23;;;;;;;8.13;3.70;;;;;;;6.82;100.00;101109.56;5031692;28;20101;-50
2022/11/25 06:33:50;;;;;;;9.38;3.25;;;;;;;6.81;100.00;101110.50;5032615;28;20025;-50
2022/11/25 06:36:17;;;;;;;12.55;3.78;;;;;;;6.80;100.00;101114.94;5029504;28;20108;-51
2022/11/25 06:38:48;;;;;;;13.18;3.17;;;;;;;6.79;100.00;101123.78;5032464;28;20075;-51
2022/11/25 06:41:14;;;;;;;7.85;3.47;;;;;;;6.79;100.00;101123.78;5021488;28;20494;-50
2022/11/25 06:43:40;;;;;;;9.88;3.13;;;;;;;6.79;100.00;101123.78;5032987;28;20018;-52
2022/11/25 06:46:08;;;;;;;9.73;2.90;;;;;;;6.79;100.00;101130.88;5023837;28;20116;-51
2022/11/25 06:48:34;;;;;;;9.27;3.30;;;;;;;6.77;100.00;101133.59;5031596;28;20080;-52
2022/11/25 06:51:01;;;;;;;7.85;3.10;;;;;;;6.76;100.00;101136.31;5030662;28;20076;-51
2022/11/25 06:53:27;;;;;;;9.70;3.13;;;;;;;6.75;100.00;101131.97;5031908;28;20032;-51
2022/11/25 06:56:12;;;;;;;9.75;3.20;;;;;;;6.75;100.00;101131.97;5031826;28;20394;-51
2022/11/25 06:58:38;;;;;;;10.65;2.92;;;;;;;6.72;100.00;101135.63;5031530;28;20463;-50
2022/11/25 07:01:07;;;;;;;10.00;3.50;;;;;;;6.70;100.00;101144.59;5032019;28;20034;-51
2022/11/25 07:03:34;;;;;;;8.85;2.80;;;;;;;6.67;100.00;101137.69;5031557;28;20104;-51
2022/11/25 07:05:59;;;;;;;8.55;2.70;;;;;;;6.67;100.00;101140.31;5031028;28;20064;-51
2022/11/25 07:08:26;;;;;;;12.32;3.33;;;;;;;6.64;100.00;101141.34;5031517;28;20419;-50
2022/11/25 07:10:51;;;;;;;11.77;3.40;;;;;;;6.63;100.00;101152.00;5035244;28;20033;-51
2022/11/25 07:13:17;;;;;;;9.63;3.30;;;;;;;6.63;100.00;101159.91;5032668;28;21315;-50
2022/11/25 07:15:42;;;;;;;6.30;2.72;;;;;;;6.60;100.00;101166.19;5034027;28;20112;-50
2022/11/25 07:18:08;;;;;;;11.52;3.35;;;;;;;6.60;100.00;101171.47;5034496;28;20022;-50
2022/11/25 07:20:33;;;;;;;10.10;3.30;;;;;;;6.58;100.00;101172.53;5035381;28;20057;-50
2022/11/25 07:22:58;;;;;;;11.23;3.63;;;;;;;6.56;100.00;101183.16;5035276;28;20075;-50
2022/11/25 07:25:24;;;;;;;13.35;3.22;;;;;;;6.56;100.00;101190.19;5035663;28;20082;-54
2022/11/25 07:27:49;;;;;;;15.35;3.40;;;;;;;6.52;100.00;101188.69;5033985;28;20525;-50
2022/11/25 07:30:15;;;;;;;12.07;3.40;;;;;;;6.51;100.00;101186.97;5029107;28;20484;-50
2022/11/25 07:32:40;;;;;;;8.82;3.47;;;;;;;6.48;100.00;101195.91;5034393;28;20112;-51
2022/11/25 07:35:06;;;;;;;13.43;3.03;;;;;;;6.46;100.00;101198.63;5030882;28;20065;-54
2022/11/25 07:37:32;;;;;;;11.38;3.20;;;;;;;6.46;100.00;101200.41;5033879;28;20021;-50
2022/11/25 07:39:57;;;;;;;9.70;2.97;;;;;;;6.44;100.00;101205.75;5030889;28;20076;-53
2022/11/25 07:42:23;;;;;;;12.02;3.80;;;;;;;6.44;100.00;101212.81;5033282;28;20116;-51
2022/11/25 07:44:48;;;;;;;10.57;3.28;;;;;;;6.43;100.00;101219.91;5030773;28;20094;-51
2022/11/25 07:47:13;;;;;;;10.77;3.28;;;;;;;6.43;100.00;101225.19;5029949;28;20380;-52
2022/11/25 07:49:39;;;;;;;13.57;3.42;;;;;;;6.43;100.00;101232.25;5032729;28;20486;-53
2022/11/25 07:52:04;;;;;;;10.60;3.20;;;;;;;6.43;100.00;101229.59;5027086;28;20064;-51
2022/11/25 07:54:31;;;;;;;13.57;3.63;;;;;;;6.42;100.00;101238.44;5031029;28;20036;-52
2022/11/25 07:56:56;;;;;;;11.77;3.55;;;;;;;6.42;100.00;101239.28;5032352;28;20087;-51
2022/11/25 07:59:22;;;;;;;10.35;3.45;;;;;;;6.43;100.00;101242.81;5031767;28;20034;-53
2022/11/25 08:01:52;;;;;;;11.30;3.30;;;;;;;6.43;100.00;101248.06;5029674;28;20046;-51
2022/11/25 08:04:17;;;;;;;11.65;4.05;;;;;;;6.43;100.00;101251.56;5031706;28;20076;-53
2022/11/25 08:06:45;;;;;;;12.68;3.50;;;;;;;6.43;100.00;101262.13;5031032;28;20084;-53
2022/11/25 08:09:13;;;;;;;9.27;3.22;;;;;;;6.43;100.00;101262.13;5030218;28;20033;-51
2022/11/25 08:11:39;;;;;;;8.57;3.00;;;;;;;6.45;100.00;101264.69;5029488;28;20081;-53
2022/11/25 08:14:05;;;;;;;9.90;3.10;;;;;;;6.48;100.00;101269.78;5028979;28;20022;-51
2022/11/25 08:16:31;;;;;;;11.32;3.70;;;;;;;6.49;100.00;101271.47;5030952;28;20060;-52
2022/11/25 08:18:59;;;;;;;12.45;3.33;;;;;;;6.51;100.00;101269.59;5029152;28;20029;-52
2022/11/25 08:21:24;;;;;;;10.48;3.88;;;;;;;6.54;100.00;101281.81;5029105;28;20053;-52
2022/11/25 08:23:51;;;;;;;10.65;3.65;;;;;;;6.58;100.00;101286.00;5029931;28;20087;-51
2022/11/25 08:26:24;;;;;;;9.90;3.67;;;;;;;6.60;100.00;101287.59;5031026;28;20056;-51
2022/11/25 08:28:49;;;;;;;10.35;3.63;;;;;;;6.62;100.00;101277.81;5032988;28;20487;-51
2022/11/25 08:31:18;;;;;;;12.20;3.35;;;;;;;6.65;100.00;101293.50;5028434;28;20060;-52
2022/11/25 08:33:43;;;;;;;11.40;3.53;;;;;;;6.69;100.00;101290.69;5030196;28;20037;-53
2022/11/25 08:36:11;;;;;;;14.43;3.88;;;;;;;6.71;100.00;101289.69;5030879;28;20033;-51
2022/11/25 08:38:36;;;;;;;12.85;3.90;;;;;;;6.75;100.00;101293.03;5031972;28;20065;-53
2022/11/25 08:41:02;;;;;;;10.57;3.85;;;;;;;6.78;100.00;101288.44;5032842;28;20068;-54
2022/11/25 08:43:28;;;;;;;13.55;3.88;;;;;;;6.83;100.00;101290.81;5033528;28;20111;-55
2022/11/25 08:45:53;;;;;;;13.45;4.32;;;;;;;6.88;100.00;101291.44;5031032;28;20025;-52
2022/11/25 08:48:20;;;;;;;14.35;4.53;;;;;;;6.93;100.00;101291.16;5031343;28;20025;-55
2022/11/25 08:50:51;;;;;;;10.50;3.70;;;;;;;6.97;100.00;101292.72;5032798;28;20363;-53
2022/11/25 08:53:18;;;;;;;9.70;4.40;;;;;;;7.03;100.00;101292.38;5031591;28;20040;-55
2022/11/25 08:55:44;;;;;;;12.57;4.50;;;;;;;7.08;100.00;101298.25;5031476;28;20521;-52
2022/11/25 08:58:11;;;;;;;16.98;4.90;;;;;;;7.15;100.00;101301.41;5033285;28;20013;-50
2022/11/25 09:00:38;;;;;;;15.55;4.10;;;;;;;7.20;100.00;101304.66;5035411;28;20063;-52
2022/11/25 09:03:03;;;;;;;15.52;4.43;;;;;;;7.28;100.00;101304.22;5033325;28;20017;-54
2022/11/25 09:05:34;;;;;;;12.50;4.50;;;;;;;7.34;100.00;101310.00;5029811;28;20494;-53
2022/11/25 09:08:00;;;;;;;9.95;4.05;;;;;;;7.41;100.00;101316.69;5033044;28;20168;-53
2022/11/25 09:10:25;;;;;;;10.85;3.95;;;;;;;7.49;100.00;101307.47;5030911;28;20109;-53
2022/11/25 09:12:50;;;;;;;12.13;4.55;;;;;;;7.55;100.00;101325.63;5033314;28;20111;-52
2022/11/25 09:15:16;;;;;;;10.50;4.43;;;;;;;7.62;100.00;101321.69;5033792;28;20040;-51
2022/11/25 09:17:41;;;;;;;14.18;4.75;;;;;;;7.71;100.00;101326.47;5033630;28;20026;-51
2022/11/25 09:20:07;;;;;;;13.10;4.30;;;;;;;7.77;100.00;101334.03;5034637;28;20018;-52
2022/11/25 09:22:32;;;;;;;13.48;4.65;;;;;;;7.85;100.00;101338.91;5033443;28;20032;-51
2022/11/25 09:24:57;;;;;;;12.68;4.38;;;;;;;7.93;100.00;101334.03;5030430;28;20546;-53
2022/11/25 09:27:22;;;;;;;14.00;4.75;;;;;;;8.00;100.00;101339.81;5033389;28;20577;-55
2022/11/25 09:29:48;;;;;;;13.23;4.50;;;;;;;8.09;100.00;101341.94;5031346;28;20029;-50
2022/11/25 09:32:13;;;;;;;12.82;3.80;;;;;;;8.21;100.00;101347.44;5032152;28;20025;-51
2022/11/25 09:34:38;;;;;;;17.13;4.07;;;;;;;8.28;100.00;101349.63;5032330;28;20064;-51
2022/11/25 09:37:04;;;;;;;13.40;4.30;;;;;;;8.39;100.00;101359.56;5028120;28;20509;-52
2022/11/25 09:39:29;;;;;;;9.68;4.43;;;;;;;8.47;100.00;101357.34;5028317;28;20040;-51
2022/11/25 09:48:13;;;;;;;13.07;4.00;;;;;;;8.77;100.00;101375.00;5029548;28;20395;-52
2022/11/25 09:51:16;;;;;;;14.15;4.22;;;;;;;8.90;100.00;101377.75;5026205;28;20054;-52
2022/11/25 09:53:46;;;;;;;17.98;4.30;;;;;;;8.99;100.00;101379.88;5030279;28;20040;-49
2022/11/25 09:56:26;;;;;;;11.10;3.72;;;;;;;9.06;100.00;101377.69;5031093;28;20029;-53
2022/11/25 09:58:58;;;;;;;8.23;3.42;;;;;;;9.17;100.00;101379.66;5030689;28;20029;-53
2022/11/25 10:01:27;;;;;;;11.05;4.05;;;;;;;9.24;100.00;101384.50;5026477;28;20052;-49
2022/11/25 10:04:04;;;;;;;10.27;3.20;;;;;;;9.33;100.00;101384.88;5029153;28;20025;-50
2022/11/25 10:06:33;;;;;;;12.15;3.80;;;;;;;9.39;100.00;101388.00;5030752;28;20025;-50
2022/11/25 10:09:21;;;;;;;;;;;;;;;9.47;100.00;101391.94;5031791;28;20053;-51
2022/11/25 10:12:02;;;;;;;12.95;3.95;;;;;;;9.55;100.00;101398.47;5030820;28;19908;-51
2022/11/25 10:14:48;;;;;;;13.90;3.28;;;;;;;9.60;99.74;101403.47;5030764;28;20026;-55
2022/11/25 10:17:25;;;;;;;9.07;3.40;;;;;;;9.68;99.09;101409.16;5029065;28;20099;-52
2022/11/25 10:20:04;;;;;;;9.00;3.10;;;;;;;9.72;97.64;101405.34;5029241;28;20033;-50
2022/11/25 10:22:44;;;;;;;10.88;4.00;;;;;;;9.78;96.78;101420.03;5028461;28;20029;-51
2022/11/25 10:25:20;;;;;;;8.98;3.10;;;;;;;9.85;96.56;101423.97;5030683;28;20060;-51
2022/11/25 10:28:00;;;;;;;9.27;3.22;;;;;;;9.92;95.76;101432.41;5027384;28;20034;-51
2022/11/25 10:30:34;;;;;;;11.13;3.38;;;;;;;9.97;96.11;101425.81;5037938;28;20029;-54
2022/11/25 10:33:15;;;;;;;10.18;3.20;;;;;;;10.06;95.54;101435.03;5030398;28;20083;-52
2022/11/25 10:35:47;;;;;;;11.35;3.22;;;;;;;10.16;94.75;101438.78;5032881;28;20398;-56
2022/11/25 10:38:20;;;;;;;12.30;3.17;;;;;;;10.21;93.28;101442.91;5026912;28;20037;-53
2022/11/25 10:40:49;;;;;;;7.95;2.90;;;;;;;10.27;93.15;101439.88;5031806;28;20087;-53
2022/11/25 10:43:14;;;;;;;7.90;3.00;;;;;;;10.32;92.46;101445.75;5031661;28;20025;-55
2022/11/25 10:45:59;;;;;;;9.63;2.90;;;;;;;10.42;93.53;101446.84;5029780;28;20037;-52
2022/11/25 10:48:45;;;;;;;13.80;3.53;;;;;;;10.50;92.36;101449.84;5029203;28;20487;-55
2022/11/25 10:51:32;;;;;;;12.02;3.03;;;;;;;10.59;92.74;101447.53;5030943;28;20041;-53
2022/11/25 10:54:10;;;;;;;12.88;3.40;;;;;;;10.65;90.99;101452.44;5030077;28;20533;-54
2022/11/25 10:57:02;;;;;;;7.22;2.42;;;;;;;10.71;91.36;101452.03;5028890;28;20127;-51
2022/11/25 10:59:30;;;;;;;12.88;3.15;;;;;;;10.77;89.83;101448.94;5030913;28;20127;-55
2022/11/25 11:02:05;;;;;;;9.63;3.00;;;;;;;10.82;89.49;101459.25;5031376;28;20033;-55
2022/11/25 11:04:33;;;;;;;7.20;2.67;;;;;;;10.89;89.58;101464.06;5031922;28;20475;-50
2022/11/25 11:07:07;;;;;;;15.20;3.38;;;;;;;10.94;88.32;101463.72;5031315;28;20371;-51
2022/11/25 11:09:39;;;;;;;10.27;3.13;;;;;;;11.01;87.55;101470.34;5027982;28;20072;-55
2022/11/25 11:12:20;;;;;;;13.23;3.42;;;;;;;11.03;87.09;101470.25;5029188;28;20036;-53
2022/11/25 11:14:46;;;;;;;7.53;2.85;;;;;;;11.06;86.01;101473.53;5029894;28;20042;-50
2022/11/25 11:17:41;;;;;;;7.22;2.58;;;;;;;11.17;88.53;101472.78;5030110;28;20387;-51
2022/11/25 11:20:06;;;;;;;14.25;3.72;;;;;;;11.23;86.41;101488.31;5025363;28;20037;-51
2022/11/25 11:22:33;;;;;;;9.10;2.78;;;;;;;11.26;85.36;101485.47;5030344;28;20108;-53
2022/11/25 11:25:25;;;;;;;8.35;2.47;;;;;;;11.27;85.23;101484.50;5031901;28;20025;-52
2022/11/25 11:27:51;;;;;;;11.10;3.00;;;;;;;11.34;85.39;101490.25;5028803;28;20037;-50
2022/11/25 11:30:19;;;;;;;9.73;2.45;;;;;;;11.36;84.74;101490.13;5027658;28;20373;-52
2022/11/25 11:33:05;;;;;;;10.00;2.95;;;;;;;11.40;84.06;101499.59;5030247;28;20360;-49
2022/11/25 11:35:57;;;;;;;9.45;3.28;;;;;;;11.40;82.82;101505.75;5025474;28;20040;-50
2022/11/25 11:38:26;;;;;;;9.55;4.03;;;;;;;11.38;82.34;101512.16;5032106;28;20029;-52
2022/11/25 11:40:58;;;;;;;13.13;3.33;;;;;;;11.40;82.64;101508.44;5031102;28;20105;-52